createdAt,value
2016-10-09T04:01:13.158Z,65.52
2016-10-09T04:01:38.731Z,65.33
2016-10-09T04:02:04.290Z,65.71
2016-10-09T04:02:29.884Z,65.42
2016-10-09T04:02:55.427Z,65.52
2016-10-09T04:03:20.957Z,65.71
2016-10-09T04:03:46.488Z,66
2016-10-09T04:04:12.033Z,65.52
2016-10-09T04:04:37.544Z,65.71
2016-10-09T04:05:03.272Z,65.62
2016-10-09T04:05:28.828Z,65.42
2016-10-09T04:05:54.439Z,65.91
2016-10-09T04:06:20.060Z,65.62
2016-10-09T04:06:45.614Z,65.71
2016-10-09T04:08:31.548Z,65.42
2016-10-09T04:08:57.094Z,65.62
2016-10-09T04:09:22.654Z,65.52
2016-10-09T04:09:48.227Z,65.71
2016-10-09T04:10:13.805Z,65.71
2016-10-09T04:10:39.537Z,65.71
2016-10-09T04:11:05.134Z,65.42
2016-10-09T04:11:30.690Z,65.62
2016-10-09T04:11:57.047Z,65.81
2016-10-09T04:12:22.629Z,65.62
2016-10-09T04:12:48.194Z,65.71
2016-10-09T04:13:13.760Z,66
2016-10-09T04:13:39.361Z,65.62
2016-10-09T04:14:04.921Z,65.62
2016-10-09T04:14:30.462Z,65.52
2016-10-09T04:14:56.008Z,65.91
2016-10-09T04:15:21.550Z,65.23
2016-10-09T04:15:47.148Z,65.33
2016-10-09T04:16:12.827Z,65.91
2016-10-09T04:16:38.428Z,65.42
2016-10-09T04:17:03.996Z,65.62
2016-10-09T04:17:29.635Z,65.71
2016-10-09T04:17:55.192Z,65.62
2016-10-09T04:18:20.743Z,65.71
2016-10-09T04:18:46.247Z,65.71
2016-10-09T04:19:11.807Z,65.42
2016-10-09T04:19:37.334Z,65.81
2016-10-09T04:20:02.940Z,65.52
2016-10-09T04:20:28.473Z,65.91
2016-10-09T04:26:06.576Z,65.62
2016-10-09T04:26:32.123Z,65.71
2016-10-09T04:26:57.673Z,65.62
2016-10-09T04:27:23.230Z,65.91
2016-10-09T04:27:48.803Z,65.62
2016-10-09T04:28:14.390Z,65.71
2016-10-09T04:28:39.960Z,65.91
2016-10-09T04:29:05.638Z,65.71
2016-10-09T04:29:31.187Z,66
2016-10-09T04:29:56.749Z,65.71
2016-10-09T04:30:22.309Z,66
2016-10-09T04:30:47.884Z,65.71
2016-10-09T04:31:13.442Z,65.71
2016-10-09T04:31:38.989Z,65.81
2016-10-09T04:32:04.557Z,65.62
2016-10-09T04:32:30.137Z,65.52
2016-10-09T04:32:55.688Z,65.62
2016-10-09T04:33:21.242Z,65.62
2016-10-09T04:33:46.778Z,65.71
2016-10-09T04:34:12.315Z,66
2016-10-09T04:34:37.877Z,65.62
2016-10-09T04:35:03.408Z,65.91
2016-10-09T04:35:29.068Z,65.71
2016-10-09T04:35:54.637Z,65.62
2016-10-09T04:36:20.189Z,65.71
2016-10-09T04:36:45.736Z,65.62
2016-10-09T04:37:11.381Z,65.62
2016-10-09T04:37:36.942Z,65.42
2016-10-09T04:38:02.733Z,65.52
2016-10-09T04:38:28.313Z,65.62
2016-10-09T04:38:53.871Z,65.42
2016-10-09T04:39:19.478Z,65.71
2016-10-09T04:39:45.238Z,65.62
2016-10-09T04:40:10.896Z,65.52
2016-10-09T04:40:36.458Z,65.62
2016-10-09T04:41:02.001Z,65.62
2016-10-09T04:41:27.679Z,65.91
2016-10-09T04:41:53.283Z,65.71
2016-10-09T04:42:18.821Z,65.33
2016-10-09T04:42:44.380Z,65.62
2016-10-09T04:43:10.149Z,65.81
2016-10-09T04:43:35.715Z,65.62
2016-10-09T04:44:01.275Z,65.52
2016-10-09T04:44:26.836Z,65.71
2016-10-09T04:44:52.419Z,65.62
2016-10-09T04:45:17.966Z,65.81
2016-10-09T04:45:43.532Z,65.52
2016-10-09T04:46:09.098Z,65.91
2016-10-09T04:46:34.654Z,65.81
2016-10-09T04:47:00.210Z,65.71
2016-10-09T04:49:40.877Z,65.62
2016-10-09T04:50:06.479Z,65.52
2016-10-09T04:50:32.051Z,65.33
2016-10-09T04:50:57.623Z,65.91
2016-10-09T04:51:23.167Z,65.81
2016-10-09T04:51:48.743Z,65.52
2016-10-09T04:52:14.322Z,65.52
2016-10-09T04:52:39.959Z,65.91
2016-10-09T04:53:05.508Z,65.91
2016-10-09T04:53:31.047Z,66.19
2016-10-09T04:53:56.598Z,66
2016-10-09T04:54:22.140Z,65.91
2016-10-09T04:54:47.700Z,65.81
2016-10-09T04:55:21.835Z,65.81
2016-10-09T04:55:47.410Z,66.29
2016-10-09T04:56:13.001Z,65.71
2016-10-09T04:56:38.565Z,66
2016-10-09T04:57:04.124Z,65.33
2016-10-09T04:57:29.940Z,65.62
2016-10-09T04:57:55.515Z,65.62
2016-10-09T04:58:21.754Z,65.71
2016-10-09T04:58:47.350Z,65.33
2016-10-09T04:59:13.565Z,65.52
2016-10-09T04:59:39.140Z,65.71
2016-10-09T05:00:04.718Z,65.62
2016-10-09T05:00:31.021Z,65.42
2016-10-09T05:00:56.579Z,65.71
2016-10-09T05:01:23.721Z,65.62
2016-10-09T05:01:49.270Z,65.42
2016-10-09T05:02:14.913Z,65.71
2016-10-09T05:02:40.469Z,65.62
2016-10-09T05:03:06.037Z,65.71
2016-10-09T05:03:31.844Z,65.62
2016-10-09T05:03:57.398Z,65.42
2016-10-09T05:04:23.634Z,65.52
2016-10-09T05:04:49.185Z,65.33
2016-10-09T05:05:14.802Z,65.42
2016-10-09T05:05:40.968Z,65.42
2016-10-09T05:06:06.538Z,65.14
2016-10-09T06:46:26.392Z,66.09
2016-10-09T06:46:51.959Z,65.71
2016-10-09T06:47:17.517Z,65.91
2016-10-09T06:47:43.065Z,65.71
2016-10-09T06:48:08.818Z,65.91
2016-10-09T06:48:34.378Z,65.91
2016-10-09T06:48:59.931Z,66.29
2016-10-09T06:49:25.481Z,65.71
2016-10-09T06:49:51.027Z,65.62
2016-10-09T06:50:16.633Z,65.81
2016-10-09T06:50:42.260Z,65.71
2016-10-09T06:51:07.823Z,65.91
2016-10-09T06:51:33.377Z,65.62
2016-10-09T06:51:58.932Z,65.71
2016-10-09T06:52:24.855Z,65.52
2016-10-09T06:52:50.416Z,65.81
2016-10-09T06:53:15.973Z,65.62
2016-10-09T06:53:41.533Z,65.42
2016-10-09T06:54:07.110Z,65.23
2016-10-09T06:55:05.226Z,64.85
2016-10-09T06:55:30.805Z,64.95
2016-10-09T06:55:56.399Z,64.95
2016-10-09T06:56:21.962Z,65.33
2016-10-09T06:56:47.533Z,65.05
2016-10-09T06:57:13.140Z,64.85
2016-10-09T06:57:38.836Z,64.98
2016-10-09T06:58:04.427Z,65.05
2016-10-09T06:58:30.027Z,65.08
2016-10-09T06:58:55.601Z,64.89
2016-10-09T06:59:21.142Z,65.05
2016-10-09T06:59:46.802Z,65.14
2016-10-09T07:00:12.367Z,65.08
2016-10-09T07:00:37.933Z,65.26
2016-10-09T07:01:03.469Z,65.36
2016-10-09T07:01:29.009Z,64.89
2016-10-09T07:01:54.564Z,64.89
2016-10-09T07:02:20.147Z,64.76
2016-10-09T07:02:45.691Z,65.17
2016-10-09T07:03:11.243Z,64.98
2016-10-09T07:03:36.970Z,64.98
2016-10-09T07:04:02.525Z,64.79
2016-10-09T07:04:28.159Z,65.17
2016-10-09T07:04:53.713Z,64.79
2016-10-09T07:05:19.352Z,64.69
2016-10-09T07:05:44.897Z,64.59
2016-10-09T07:06:10.470Z,64.69
2016-10-09T07:06:36.055Z,64.59
2016-10-09T07:07:01.608Z,64.69
2016-10-09T07:07:27.166Z,64.79
2016-10-09T07:07:52.728Z,64.69
2016-10-09T07:09:06.222Z,64.5
2016-10-09T07:09:31.811Z,64.98
2016-10-09T07:09:57.363Z,64.89
2016-10-09T07:10:22.915Z,64.89
2016-10-09T07:10:48.472Z,64.89
2016-10-09T07:11:14.607Z,64.59
2016-10-09T07:11:40.438Z,64.79
2016-10-09T07:12:06.314Z,64.79
2016-10-09T07:12:31.874Z,64.98
2016-10-09T07:12:58.143Z,65.17
2016-10-09T07:13:23.769Z,64.98
2016-10-09T07:13:49.664Z,65.08
2016-10-09T07:14:15.444Z,64.79
2016-10-09T07:14:41.148Z,65.08
2016-10-09T07:15:07.250Z,64.69
2016-10-09T07:15:32.845Z,64.89
2016-10-09T07:16:46.320Z,64.89
2016-10-09T07:17:12.784Z,64.79
2016-10-09T07:17:38.349Z,64.69
2016-10-09T07:18:03.933Z,64.5
2016-10-09T07:18:29.600Z,64.22
2016-10-09T07:18:55.153Z,64.31
2016-10-09T07:19:58.539Z,64.5
2016-10-09T07:20:24.146Z,64.5
2016-10-09T07:20:49.690Z,64.59
2016-10-09T07:21:15.229Z,64.59
2016-10-09T07:21:40.786Z,64.69
2016-10-09T07:22:06.363Z,64.4
2016-10-09T07:22:31.928Z,64.5
2016-10-09T07:22:57.468Z,64.4
2016-10-09T07:23:23.025Z,64.4
2016-10-09T07:23:48.598Z,64.59
2016-10-09T07:24:14.134Z,64.5
2016-10-09T07:24:39.706Z,64.63
2016-10-09T07:25:05.446Z,63.86
2016-10-09T07:25:31.036Z,63.64
2016-10-09T07:25:56.640Z,63.86
2016-10-09T07:26:22.205Z,63.73
2016-10-09T07:26:47.924Z,63.67
2016-10-09T07:27:13.463Z,63.67
2016-10-09T07:27:39.189Z,63.86
2016-10-09T07:28:04.988Z,63.86
2016-10-09T07:28:30.733Z,63.76
2016-10-09T07:28:56.282Z,63.96
2016-10-09T07:29:21.845Z,63.96
2016-10-09T07:29:47.542Z,63.86
2016-10-09T07:30:13.091Z,63.76
2016-10-09T07:30:38.761Z,63.96
2016-10-09T07:31:04.293Z,64.05
2016-10-09T07:31:30.031Z,63.86
2016-10-09T07:31:55.583Z,63.96
2016-10-09T07:32:59.065Z,63.48
2016-10-09T07:33:24.708Z,63.57
2016-10-09T07:33:50.285Z,63.57
2016-10-09T07:34:15.851Z,64.25
2016-10-09T07:34:41.374Z,63.57
2016-10-09T07:35:06.898Z,63.57
2016-10-09T07:35:32.450Z,63.38
2016-10-09T07:35:58.412Z,63.29
2016-10-09T07:37:01.465Z,64.05
2016-10-09T07:37:27.022Z,63.19
2016-10-09T07:37:52.569Z,63.48
2016-10-09T07:38:18.115Z,63.67
2016-10-09T07:38:43.679Z,63.48
2016-10-09T07:39:09.407Z,63.38
2016-10-09T07:39:34.999Z,63.57
2016-10-09T07:40:00.665Z,63.67
2016-10-09T07:40:26.591Z,63.76
2016-10-09T07:40:52.307Z,63.32
2016-10-09T07:41:17.911Z,63.12
2016-10-09T07:41:43.461Z,62.9
2016-10-09T07:42:09.012Z,63.12
2016-10-09T07:42:34.570Z,63.03
2016-10-09T07:43:00.264Z,63.22
2016-10-09T07:43:25.828Z,63.12
2016-10-09T07:43:51.360Z,63.32
2016-10-09T07:44:16.977Z,63.32
2016-10-09T07:44:42.519Z,63.03
2016-10-09T07:45:08.070Z,63.22
2016-10-09T07:45:33.692Z,63.32
2016-10-09T07:45:59.230Z,63.22
2016-10-09T07:46:24.803Z,63.42
2016-10-09T07:46:50.451Z,63.32
2016-10-09T07:47:15.985Z,62.74
2016-10-09T07:47:41.530Z,63.22
2016-10-09T07:48:07.096Z,63.12
2016-10-09T07:48:32.610Z,63.32
2016-10-09T07:48:58.166Z,63.32
2016-10-09T07:50:01.369Z,63.22
2016-10-09T07:50:26.901Z,63.12
2016-10-09T07:50:52.486Z,63.32
2016-10-09T07:51:18.191Z,63.32
2016-10-09T07:51:43.735Z,63.22
2016-10-09T07:52:09.298Z,63.03
2016-10-09T07:52:34.864Z,63.12
2016-10-09T07:53:00.623Z,63.12
2016-10-09T07:53:26.202Z,63.12
2016-10-09T07:53:51.762Z,63.12
2016-10-09T07:54:17.401Z,63.12
2016-10-09T07:54:43.049Z,63.06
2016-10-09T07:55:08.650Z,63.54
2016-10-09T07:55:34.232Z,63.03
2016-10-09T07:55:59.811Z,63.35
2016-10-09T07:56:25.390Z,62.77
2016-10-09T07:56:50.932Z,62.65
2016-10-09T07:57:16.514Z,63.03
2016-10-09T07:57:42.078Z,62.77
2016-10-09T07:58:07.621Z,62.68
2016-10-09T07:58:33.168Z,62.87
2016-10-09T07:58:58.739Z,63.06
2016-10-09T07:59:24.391Z,63.06
2016-10-09T07:59:49.942Z,63.16
2016-10-09T08:00:15.694Z,63.16
2016-10-09T08:00:41.264Z,63.16
2016-10-09T08:01:06.843Z,63.06
2016-10-09T08:01:32.394Z,62.68
2016-10-09T08:01:58.004Z,62.96
2016-10-09T08:02:23.523Z,62.87
2016-10-09T08:02:49.096Z,62.96
2016-10-09T08:03:14.665Z,62.58
2016-10-09T08:03:40.234Z,62.58
2016-10-09T08:04:05.789Z,63.06
2016-10-09T08:04:31.354Z,62.87
2016-10-09T08:04:56.915Z,62.87
2016-10-09T08:05:22.449Z,62.68
2016-10-09T08:05:48.030Z,62.77
2016-10-09T08:06:13.580Z,62.96
2016-10-09T08:06:39.117Z,62.87
2016-10-09T08:07:04.667Z,62.87
2016-10-09T08:07:30.270Z,62.87
2016-10-09T08:07:55.834Z,62.96
2016-10-09T08:08:21.540Z,62.87
2016-10-09T08:08:47.170Z,62.96
2016-10-09T08:09:12.749Z,62.77
2016-10-09T08:09:38.335Z,62.77
2016-10-09T08:10:03.885Z,63.25
2016-10-09T08:10:29.463Z,62.39
2016-10-09T08:10:55.117Z,62.58
2016-10-09T08:11:20.787Z,62.29
2016-10-09T08:11:46.242Z,62.52
2016-10-09T08:12:11.824Z,62.01
2016-10-09T08:12:37.446Z,62.1
2016-10-09T08:13:02.995Z,62.32
2016-10-09T08:14:01.116Z,62.48
2016-10-09T08:15:04.319Z,62.32
2016-10-09T08:15:29.926Z,62.39
2016-10-09T08:15:55.488Z,62.32
2016-10-09T08:16:21.018Z,62.42
2016-10-09T08:16:46.729Z,62.32
2016-10-09T08:17:12.349Z,62.23
2016-10-09T08:17:37.908Z,62.52
2016-10-09T08:18:03.568Z,62.52
2016-10-09T08:18:29.144Z,62.52
2016-10-09T08:18:54.722Z,62.52
2016-10-09T08:19:20.283Z,62.71
2016-10-09T08:19:45.854Z,62.52
2016-10-09T08:20:11.412Z,62.32
2016-10-09T08:20:36.968Z,62.32
2016-10-09T08:21:02.558Z,62.42
2016-10-09T08:21:28.125Z,62.42
2016-10-09T08:21:53.734Z,62.42
2016-10-09T08:22:19.310Z,62.32
2016-10-09T08:22:44.878Z,62.42
2016-10-09T08:23:10.460Z,62.42
2016-10-09T08:23:36.006Z,62.32
2016-10-09T08:24:01.566Z,61.94
2016-10-09T08:24:27.121Z,62.13
2016-10-09T08:24:52.709Z,61.75
2016-10-09T08:25:18.249Z,62.13
2016-10-09T08:25:43.827Z,62.04
2016-10-09T08:26:09.381Z,61.94
2016-10-09T08:26:34.956Z,62.04
2016-10-09T08:27:00.530Z,61.65
2016-10-09T08:27:26.086Z,62.23
2016-10-09T08:27:51.790Z,61.84
2016-10-09T08:28:17.362Z,61.84
2016-10-09T08:28:42.931Z,61.84
2016-10-09T08:29:08.487Z,61.55
2016-10-09T08:29:34.048Z,61.55
2016-10-09T08:29:59.695Z,61.75
2016-10-09T08:30:25.264Z,61.46
2016-10-09T08:30:50.904Z,61.84
2016-10-09T08:31:16.477Z,61.65
2016-10-09T08:31:42.085Z,62.04
2016-10-09T08:32:07.736Z,62.04
2016-10-09T08:32:33.336Z,61.65
2016-10-09T08:32:58.907Z,61.94
2016-10-09T08:33:24.453Z,61.46
2016-10-09T08:33:50.124Z,61.36
2016-10-09T08:34:15.700Z,61.36
2016-10-09T08:34:41.267Z,61.36
2016-10-09T08:35:06.940Z,61.49
2016-10-09T08:35:32.507Z,61.46
2016-10-09T08:35:58.104Z,61.75
2016-10-09T08:36:23.665Z,61.65
2016-10-09T08:36:49.236Z,61.27
2016-10-09T08:37:14.843Z,61.49
2016-10-09T08:37:40.413Z,61.3
2016-10-09T08:38:06.125Z,61.3
2016-10-09T08:38:31.681Z,61.58
2016-10-09T08:38:57.241Z,61.49
2016-10-09T08:39:22.818Z,61.65
2016-10-09T08:39:48.410Z,61.68
2016-10-09T08:40:13.974Z,61.68
2016-10-09T08:40:39.528Z,61.65
2016-10-09T08:41:05.123Z,61.68
2016-10-09T08:41:30.838Z,61.55
2016-10-09T08:41:56.396Z,61.68
2016-10-09T08:42:22.048Z,61.87
2016-10-09T08:42:47.620Z,61.68
2016-10-09T08:43:13.196Z,61.78
2016-10-09T08:43:38.792Z,61.4
2016-10-09T08:44:04.362Z,61.49
2016-10-09T08:44:29.943Z,61.01
2016-10-09T08:44:55.515Z,61.4
2016-10-09T08:45:21.075Z,60.82
2016-10-09T08:45:46.640Z,61.11
2016-10-09T08:46:12.263Z,61.11
2016-10-09T08:46:37.855Z,61.01
2016-10-09T08:47:03.417Z,61.11
2016-10-09T08:47:29.006Z,61.01
2016-10-09T08:47:54.546Z,61.11
2016-10-09T08:48:20.129Z,61.11
2016-10-09T08:48:45.682Z,61.11
2016-10-09T08:49:11.456Z,61.2
2016-10-09T08:49:36.942Z,60.91
2016-10-09T08:50:02.503Z,61.4
2016-10-09T08:50:28.073Z,61.11
2016-10-09T08:50:53.643Z,61.2
2016-10-09T08:51:19.206Z,61.3
2016-10-09T08:51:44.784Z,61.3
2016-10-09T08:52:10.335Z,60.91
2016-10-09T08:52:35.934Z,61.01
2016-10-09T08:53:01.580Z,61.11
2016-10-09T08:53:27.247Z,60.82
2016-10-09T08:53:52.793Z,61.11
2016-10-09T08:54:18.371Z,60.91
2016-10-09T08:54:43.921Z,60.91
2016-10-09T08:55:09.479Z,60.91
2016-10-09T08:56:12.283Z,60.91
2016-10-09T08:58:19.273Z,61.01
2016-10-09T08:58:44.835Z,61.01
2016-10-09T08:59:10.435Z,60.82
2016-10-09T08:59:35.991Z,61.2
2016-10-09T09:00:02.166Z,61.3
2016-10-09T09:00:27.269Z,60.63
2016-10-09T09:00:52.821Z,61.2
2016-10-09T09:01:18.393Z,60.72
2016-10-09T09:01:43.957Z,60.72
2016-10-09T09:02:09.497Z,60.72
2016-10-09T09:02:35.083Z,60.82
2016-10-09T09:03:00.675Z,60.24
2016-10-09T09:03:26.247Z,60.53
2016-10-09T09:03:51.821Z,60.82
2016-10-09T09:04:17.405Z,60.43
2016-10-09T09:04:42.986Z,60.43
2016-10-09T09:05:08.555Z,60.53
2016-10-09T09:05:34.661Z,60.43
2016-10-09T09:06:00.258Z,60.34
2016-10-09T09:06:26.422Z,60.63
2016-10-09T09:06:51.996Z,60.63
2016-10-09T09:07:18.231Z,60.34
2016-10-09T09:07:43.814Z,60.53
2016-10-09T09:08:09.369Z,60.43
2016-10-09T09:08:35.582Z,60.72
2016-10-09T09:09:01.129Z,60.75
2016-10-09T09:09:27.382Z,60.85
2016-10-09T09:09:52.963Z,60.75
2016-10-09T09:10:18.548Z,60.63
2016-10-09T09:10:44.781Z,60.75
2016-10-09T09:11:10.357Z,60.85
2016-10-09T09:11:36.516Z,60.53
2016-10-09T09:12:02.097Z,60.75
2016-10-09T09:13:05.313Z,60.94
2016-10-09T09:13:30.892Z,60.75
2016-10-09T09:13:56.462Z,60.63
2016-10-09T09:14:22.165Z,60.75
2016-10-09T09:14:47.747Z,60.46
2016-10-09T09:16:05.593Z,60.66
2016-10-09T09:16:31.132Z,60.85
2016-10-09T09:16:56.712Z,60.85
2016-10-09T09:17:22.301Z,60.75
2016-10-09T09:17:47.839Z,60.56
2016-10-09T09:18:13.795Z,60.66
2016-10-09T09:18:39.360Z,60.56
2016-10-09T09:19:05.615Z,60.37
2016-10-09T09:19:31.169Z,60.37
2016-10-09T09:19:57.426Z,60.27
2016-10-09T09:20:23.015Z,60.27
2016-10-09T09:20:48.726Z,60.27
2016-10-09T09:21:14.743Z,60.17
2016-10-09T09:21:40.393Z,60.17
2016-10-09T09:22:06.574Z,60.27
2016-10-09T09:22:32.126Z,60.08
2016-10-09T09:22:57.686Z,60.27
2016-10-09T09:23:23.888Z,60.27
2016-10-09T09:23:49.490Z,60.27
2016-10-09T09:24:15.697Z,60.08
2016-10-09T09:24:41.257Z,60.17
2016-10-09T09:25:07.504Z,60.08
2016-10-09T09:25:33.035Z,60.46
2016-10-09T09:25:58.595Z,60.27
2016-10-09T09:26:24.822Z,60.17
2016-10-09T09:26:50.412Z,60.08
2016-10-09T09:27:16.696Z,60.08
2016-10-09T09:27:42.269Z,60.27
2016-10-09T09:28:07.855Z,60.17
2016-10-09T09:28:33.973Z,59.99
2016-10-09T09:28:59.527Z,60.17
2016-10-09T09:29:25.778Z,60.08
2016-10-09T09:29:51.347Z,59.99
2016-10-09T09:30:17.568Z,60.37
2016-10-09T09:30:43.120Z,60.17
2016-10-09T09:31:08.684Z,60.17
2016-10-09T09:31:34.935Z,60.08
2016-10-09T09:32:00.513Z,60.17
2016-10-09T09:32:26.810Z,60.17
2016-10-09T09:32:52.406Z,60.17
2016-10-09T09:33:17.976Z,60.08
2016-10-09T09:33:44.041Z,60.37
2016-10-09T09:34:09.607Z,60.17
2016-10-09T09:34:35.845Z,60.17
2016-10-09T09:35:01.425Z,60.17
2016-10-09T09:35:27.657Z,60.27
2016-10-09T09:35:53.242Z,59.99
2016-10-09T09:36:18.930Z,59.99
2016-10-09T09:36:44.974Z,60.27
2016-10-09T09:37:10.652Z,60.17
2016-10-09T09:37:36.801Z,60.27
2016-10-09T09:38:02.387Z,60.27
2016-10-09T09:38:27.968Z,60.08
2016-10-09T09:38:54.231Z,60.37
2016-10-09T09:39:19.808Z,60.37
2016-10-09T09:39:45.944Z,60.46
2016-10-09T09:40:11.497Z,60.37
2016-10-09T09:40:37.727Z,60.17
2016-10-09T09:41:03.308Z,59.99
2016-10-09T09:41:28.907Z,59.99
2016-10-09T09:41:55.086Z,59.99
2016-10-09T09:43:03.405Z,59.69
2016-10-09T09:43:28.991Z,59.79
2016-10-09T09:43:54.570Z,59.69
2016-10-09T09:44:20.093Z,59.79
2016-10-09T09:44:45.786Z,59.79
2016-10-09T09:45:11.324Z,59.69
2016-10-09T09:45:36.883Z,59.79
2016-10-09T09:46:02.462Z,59.79
2016-10-09T09:46:28.170Z,59.79
2016-10-09T09:46:53.715Z,59.79
2016-10-09T09:47:19.270Z,59.79
2016-10-09T09:47:44.970Z,59.79
2016-10-09T09:48:10.551Z,59.99
2016-10-09T09:48:36.114Z,59.5
2016-10-09T09:49:01.674Z,59.69
2016-10-09T09:49:27.427Z,59.99
2016-10-09T09:49:52.964Z,59.79
2016-10-09T09:51:06.416Z,59.99
2016-10-09T09:51:32.056Z,60.46
2016-10-09T09:51:57.613Z,60.66
2016-10-09T09:52:23.159Z,60.27
2016-10-09T09:52:48.756Z,60.27
2016-10-09T09:53:14.350Z,60.46
2016-10-09T09:53:39.895Z,59.89
2016-10-09T09:54:05.467Z,59.89
2016-10-09T09:54:58.474Z,60.17
2016-10-09T09:55:24.147Z,59.79
2016-10-09T09:55:49.702Z,59.99
2016-10-09T09:56:15.280Z,59.89
2016-10-09T09:56:40.817Z,59.99
2016-10-09T09:57:06.389Z,59.89
2016-10-09T09:57:31.940Z,59.89
2016-10-09T09:57:57.505Z,60.08
2016-10-09T09:58:23.057Z,59.79
2016-10-09T09:58:48.642Z,60.08
2016-10-09T09:59:14.263Z,59.99
2016-10-09T09:59:39.837Z,60.37
2016-10-09T10:00:05.426Z,60.17
2016-10-09T10:00:30.992Z,59.89
2016-10-09T10:00:56.572Z,60.27
2016-10-09T10:01:22.140Z,59.79
2016-10-09T10:01:47.697Z,59.89
2016-10-09T10:02:13.253Z,60.17
2016-10-09T10:03:06.591Z,60.37
2016-10-09T10:03:32.172Z,60.27
2016-10-09T10:03:57.729Z,60.37
2016-10-09T10:04:23.440Z,60.37
2016-10-09T10:04:48.980Z,60.37
2016-10-09T10:05:14.577Z,60.46
2016-10-09T10:05:40.143Z,60.08
2016-10-09T10:06:05.713Z,60.08
2016-10-09T10:06:31.253Z,60.17
2016-10-09T10:06:56.811Z,60.27
2016-10-09T10:07:22.463Z,59.99
2016-10-09T10:07:48.021Z,59.99
2016-10-09T10:08:13.577Z,60.08
2016-10-09T10:08:39.148Z,59.99
2016-10-09T10:09:04.706Z,60.27
2016-10-09T10:09:30.274Z,60.08
2016-10-09T10:09:55.833Z,60.17
2016-10-09T10:10:21.412Z,59.89
2016-10-09T10:10:46.998Z,59.99
2016-10-09T10:11:12.634Z,60.08
2016-10-09T10:11:38.379Z,60.08
2016-10-09T10:12:03.959Z,60.27
2016-10-09T10:12:29.530Z,60.27
2016-10-09T10:12:55.133Z,60.37
2016-10-09T10:13:48.321Z,60.46
2016-10-09T10:14:13.859Z,60.37
2016-10-09T10:14:39.598Z,60.37
2016-10-09T10:15:05.157Z,60.46
2016-10-09T10:15:30.722Z,60.46
2016-10-09T10:15:56.343Z,60.37
2016-10-09T10:16:21.914Z,60.08
2016-10-09T10:16:47.465Z,60.46
2016-10-09T10:17:13.032Z,60.27
2016-10-09T10:17:38.600Z,60.46
2016-10-09T10:18:04.167Z,60.27
2016-10-09T10:18:29.775Z,60.17
2016-10-09T10:18:55.338Z,60.46
2016-10-09T10:19:21.018Z,60.37
2016-10-09T10:19:46.620Z,60.37
2016-10-09T10:20:12.162Z,60.46
2016-10-09T10:20:37.739Z,60.37
2016-10-09T10:21:03.415Z,60.46
2016-10-09T10:21:29.017Z,60.46
2016-10-09T10:21:54.603Z,60.46
2016-10-09T10:22:20.185Z,60.56
2016-10-09T10:22:45.750Z,60.46
2016-10-09T10:23:11.309Z,60.37
2016-10-09T10:23:36.960Z,60.46
2016-10-09T10:24:02.530Z,60.46
2016-10-09T10:24:28.262Z,60.56
2016-10-09T10:24:53.833Z,60.27
2016-10-09T10:25:19.411Z,60.37
2016-10-09T10:25:45.016Z,60.27
2016-10-09T10:26:10.591Z,60.37
2016-10-09T10:26:36.234Z,60.17
2016-10-09T10:27:01.862Z,59.89
2016-10-09T10:27:27.461Z,59.99
2016-10-09T10:27:53.170Z,59.89
2016-10-09T10:28:18.726Z,59.99
2016-10-09T10:28:44.280Z,59.89
2016-10-09T10:29:09.835Z,59.69
2016-10-09T10:29:35.402Z,59.69
2016-10-09T10:30:01.009Z,59.99
2016-10-09T10:30:26.572Z,59.5
2016-10-09T10:30:52.157Z,59.69
2016-10-09T10:31:17.720Z,59.79
2016-10-09T10:31:43.335Z,59.99
2016-10-09T10:32:08.897Z,59.6
2016-10-09T10:32:34.460Z,59.99
2016-10-09T10:33:00.030Z,59.89
2016-10-09T10:33:25.624Z,59.89
2016-10-09T10:33:51.199Z,59.6
2016-10-09T10:34:16.766Z,59.69
2016-10-09T10:34:42.410Z,59.6
2016-10-09T10:35:07.957Z,59.99
2016-10-09T10:35:33.736Z,60.08
2016-10-09T10:35:59.283Z,59.79
2016-10-09T10:36:24.831Z,59.79
2016-10-09T10:36:50.414Z,59.79
2016-10-09T10:37:16.016Z,59.6
2016-10-09T10:37:41.602Z,59.99
2016-10-09T10:38:07.189Z,59.99
2016-10-09T10:38:32.821Z,59.6
2016-10-09T10:38:58.405Z,59.79
2016-10-09T10:39:23.961Z,59.69
2016-10-09T10:39:49.523Z,59.79
2016-10-09T10:40:15.114Z,59.79
2016-10-09T10:40:40.691Z,59.69
2016-10-09T10:41:06.264Z,59.79
2016-10-09T10:41:31.832Z,60.46
2016-10-09T10:41:57.428Z,60.37
2016-10-09T10:42:23.025Z,60.46
2016-10-09T10:42:48.597Z,60.37
2016-10-09T10:43:14.259Z,60.17
2016-10-09T10:43:39.884Z,60.08
2016-10-09T10:44:05.514Z,59.89
2016-10-09T10:44:31.083Z,59.89
2016-10-09T10:44:56.644Z,59.89
2016-10-09T10:45:22.285Z,59.99
2016-10-09T10:45:47.844Z,60.17
2016-10-09T10:46:13.428Z,59.5
2016-10-09T10:46:38.988Z,59.6
2016-10-09T10:47:04.544Z,59.5
2016-10-09T10:47:30.124Z,59.6
2016-10-09T10:47:55.709Z,59.5
2016-10-09T10:48:21.357Z,59.69
2016-10-09T10:48:46.925Z,59.69
2016-10-09T10:49:12.499Z,59.79
2016-10-09T10:50:05.528Z,59.69
2016-10-09T10:50:31.087Z,59.99
2016-10-09T10:50:56.736Z,60.27
2016-10-09T10:51:22.342Z,60.27
2016-10-09T10:51:47.930Z,59.79
2016-10-09T10:52:13.555Z,60.46
2016-10-09T10:52:39.385Z,60.46
2016-10-09T10:53:04.948Z,60.37
2016-10-09T10:53:30.628Z,60.37
2016-10-09T10:53:56.210Z,60.08
2016-10-09T10:54:21.790Z,60.37
2016-10-09T10:54:47.363Z,60.37
2016-10-09T10:55:12.928Z,60.27
2016-10-09T10:55:38.502Z,59.99
2016-10-09T10:56:04.102Z,59.79
2016-10-09T10:57:07.362Z,60.08
2016-10-09T10:58:00.359Z,60.46
2016-10-09T10:58:25.907Z,60.27
2016-10-09T10:58:51.492Z,60.46
2016-10-09T10:59:17.072Z,60.37
2016-10-09T10:59:42.655Z,60.46
2016-10-09T11:00:08.219Z,60.17
2016-10-09T11:00:33.796Z,60.17
2016-10-09T11:00:59.564Z,60.17
2016-10-09T11:01:25.147Z,60.17
2016-10-09T11:01:50.723Z,60.27
2016-10-09T11:02:16.297Z,59.99
2016-10-09T11:02:41.851Z,59.89
2016-10-09T11:03:07.418Z,59.99
2016-10-09T11:03:32.988Z,59.69
2016-10-09T11:03:58.587Z,59.69
2016-10-09T11:05:01.814Z,59.89
2016-10-09T11:05:27.388Z,59.99
2016-10-09T11:05:52.959Z,59.79
2016-10-09T11:06:18.512Z,59.6
2016-10-09T11:06:44.088Z,59.41
2016-10-09T11:07:09.680Z,59.41
2016-10-09T11:07:35.231Z,59.72
2016-10-09T11:08:00.769Z,59.22
2016-10-09T11:08:26.303Z,59.5
2016-10-09T11:08:51.863Z,59.34
2016-10-09T11:09:17.441Z,59.44
2016-10-09T11:09:42.994Z,59.24
2016-10-09T11:10:08.568Z,59.24
2016-10-09T11:10:34.119Z,59.44
2016-10-09T11:10:59.678Z,59.15
2016-10-09T11:11:25.321Z,59.44
2016-10-09T11:11:50.867Z,59.34
2016-10-09T11:12:16.445Z,59.53
2016-10-09T11:12:42.034Z,59.44
2016-10-09T11:13:07.585Z,59.44
2016-10-09T11:14:00.973Z,59.34
2016-10-09T11:14:26.544Z,59.15
2016-10-09T11:14:52.103Z,59.24
2016-10-09T11:15:17.701Z,59.15
2016-10-09T11:15:43.265Z,59.44
2016-10-09T11:16:08.860Z,59.63
2016-10-09T11:16:34.436Z,59.44
2016-10-09T11:17:00.001Z,59.15
2016-10-09T11:17:25.540Z,58.76
2016-10-09T11:17:51.098Z,58.47
2016-10-09T11:18:16.756Z,58.37
2016-10-09T11:18:42.333Z,58.67
2016-10-09T11:19:07.933Z,58.47
2016-10-09T11:19:33.471Z,58.4
2016-10-09T11:19:59.043Z,58.18
2016-10-09T11:20:24.613Z,58.7
2016-10-09T11:20:50.195Z,58.22
2016-10-09T11:21:15.847Z,58.02
2016-10-09T11:21:41.406Z,58.22
2016-10-09T11:22:06.977Z,57.92
2016-10-09T11:22:32.554Z,57.64
2016-10-09T11:22:58.141Z,57.73
2016-10-09T11:23:23.788Z,57.35
2016-10-09T11:23:49.329Z,57.64
2016-10-09T11:24:14.912Z,57.64
2016-10-09T11:24:40.586Z,57.83
2016-10-09T11:25:06.273Z,57.64
2016-10-09T11:25:31.865Z,57.54
2016-10-09T11:25:57.419Z,57.54
2016-10-09T11:26:22.989Z,57.06
2016-10-09T11:26:48.713Z,57.06
2016-10-09T11:27:14.304Z,56.87
2016-10-09T11:27:39.906Z,56.67
2016-10-09T11:28:05.469Z,57.18
2016-10-09T11:29:03.579Z,57.09
2016-10-09T11:29:29.164Z,56.7
2016-10-09T11:29:54.767Z,56.9
2016-10-09T11:30:20.378Z,56.99
2016-10-09T11:30:45.943Z,56.9
2016-10-09T11:31:11.517Z,56.6
2016-10-09T11:31:37.096Z,56.8
2016-10-09T11:32:02.722Z,56.8
2016-10-09T11:32:28.284Z,56.51
2016-10-09T11:32:53.972Z,56.8
2016-10-09T11:33:19.602Z,56.51
2016-10-09T11:33:45.165Z,56.6
2016-10-09T11:34:10.749Z,56.22
2016-10-09T11:34:36.403Z,56.32
2016-10-09T11:35:02.011Z,56.51
2016-10-09T11:35:27.581Z,56.22
2016-10-09T11:35:53.153Z,56.22
2016-10-09T11:37:01.467Z,56.22